Time;durP1;ratioP1;P1;durP2;ratioP2;P2;SDS_P1;SDS_P2;PMS_P1;PMS_P2;Temp;Humidity;BMP_temperature;BMP_pressure;BME280_temperature;BME280_humidity;BME280_pressure;Samples;Min_cycle;Max_cycle;Signal;HPM_P1;HPM_P2
2021/07/30 00:02:08;;;;;;;0.80;0.20;;;;;;;;;;5033938;28;20061;-61
2021/07/30 00:04:33;;;;;;;1.02;0.55;;;;;;;;;;5032864;28;20099;-61
2021/07/30 00:06:58;;;;;;;1.60;0.38;;;;;;;;;;5034002;28;20371;-61
2021/07/30 00:09:23;;;;;;;0.52;0.20;;;;;;;;;;5033955;28;20025;-61
2021/07/30 00:11:49;;;;;;;0.60;0.20;;;;;;;;;;5034160;28;20030;-60
2021/07/30 00:14:14;;;;;;;0.43;0.20;;;;;;;;;;5033863;28;20026;-61
2021/07/30 00:16:39;;;;;;;0.70;0.30;;;;;;;;;;5034108;28;20021;-61
2021/07/30 00:19:05;;;;;;;0.70;0.38;;;;;;;;;;5033670;28;20025;-60
2021/07/30 00:21:30;;;;;;;0.82;0.25;;;;;;;;;;5032957;28;20029;-61
2021/07/30 00:23:55;;;;;;;0.40;0.23;;;;;;;;;;5033666;28;20022;-61
2021/07/30 00:26:21;;;;;;;1.90;0.30;;;;;;;;;;5033681;28;20702;-61
2021/07/30 00:28:46;;;;;;;0.93;0.37;;;;;;;;;;5033400;28;20018;-60
2021/07/30 00:31:11;;;;;;;1.50;0.22;;;;;;;;;;5033521;28;20792;-60
2021/07/30 00:33:36;;;;;;;0.60;0.30;;;;;;;;;;5033684;28;20026;-61
2021/07/30 00:36:01;;;;;;;0.22;0.20;;;;;;;;;;5033569;28;20029;-61
2021/07/30 00:38:27;;;;;;;1.08;0.20;;;;;;;;;;5033245;28;20082;-61
2021/07/30 00:40:52;;;;;;;1.33;0.37;;;;;;;;;;5032010;28;20024;-61
2021/07/30 00:43:17;;;;;;;3.55;0.30;;;;;;;;;;5033394;28;20330;-61
2021/07/30 00:45:43;;;;;;;0.70;0.30;;;;;;;;;;5033616;28;20109;-61
2021/07/30 00:48:08;;;;;;;0.68;0.10;;;;;;;;;;5032961;28;20102;-60
2021/07/30 00:50:34;;;;;;;0.55;0.20;;;;;;;;;;5033474;28;20029;-61
2021/07/30 00:53:00;;;;;;;0.80;0.20;;;;;;;;;;5033237;28;20380;-60
2021/07/30 00:55:25;;;;;;;0.20;0.20;;;;;;;;;;5033360;28;20400;-61
2021/07/30 00:57:53;;;;;;;0.40;0.20;;;;;;;;;;5033360;28;20022;-61
2021/07/30 01:00:21;;;;;;;1.00;0.20;;;;;;;;;;5032876;28;20080;-60
2021/07/30 01:02:47;;;;;;;0.73;0.28;;;;;;;;;;5033195;28;20017;-61
2021/07/30 01:05:12;;;;;;;1.40;0.22;;;;;;;;;;5033055;28;20029;-61
2021/07/30 01:07:38;;;;;;;0.68;0.32;;;;;;;;;;5033087;28;20029;-60
2021/07/30 01:10:04;;;;;;;1.52;0.30;;;;;;;;;;5032776;28;20049;-60
2021/07/30 01:12:29;;;;;;;0.93;0.30;;;;;;;;;;5033164;28;20018;-61
2021/07/30 01:14:55;;;;;;;1.37;0.70;;;;;;;;;;5033022;28;20017;-60
2021/07/30 01:17:20;;;;;;;0.95;0.30;;;;;;;;;;5033029;28;20725;-60
2021/07/30 01:19:46;;;;;;;2.42;0.20;;;;;;;;;;5033203;28;20514;-60
2021/07/30 01:22:21;;;;;;;1.52;0.35;;;;;;;;;;5032758;28;20021;-61
2021/07/30 01:24:46;;;;;;;2.20;0.30;;;;;;;;;;5032800;28;20021;-60
2021/07/30 01:27:12;;;;;;;1.50;0.20;;;;;;;;;;5032793;28;20108;-61
2021/07/30 01:29:37;;;;;;;0.30;0.10;;;;;;;;;;5032785;28;20072;-61
2021/07/30 01:32:02;;;;;;;0.98;0.30;;;;;;;;;;5032893;28;20072;-61
2021/07/30 01:34:28;;;;;;;0.45;0.30;;;;;;;;;;5035977;28;20087;-61
2021/07/30 01:36:53;;;;;;;0.13;0.13;;;;;;;;;;5037017;28;20371;-61
2021/07/30 01:39:18;;;;;;;0.82;0.20;;;;;;;;;;5036718;28;20309;-62
2021/07/30 01:41:43;;;;;;;1.50;0.20;;;;;;;;;;5036496;28;20068;-61
2021/07/30 01:44:09;;;;;;;0.28;0.20;;;;;;;;;;5036762;28;20540;-61
2021/07/30 01:46:34;;;;;;;0.90;0.28;;;;;;;;;;5036676;28;20030;-62
2021/07/30 01:48:59;;;;;;;2.03;0.20;;;;;;;;;;5036464;28;20036;-61
2021/07/30 01:51:24;;;;;;;1.15;0.50;;;;;;;;;;5036507;28;20108;-61
2021/07/30 01:53:49;;;;;;;1.02;0.40;;;;;;;;;;5036741;28;20071;-61
2021/07/30 01:56:15;;;;;;;0.60;0.30;;;;;;;;;;5036516;28;20029;-61
2021/07/30 01:58:40;;;;;;;1.05;0.22;;;;;;;;;;5036561;28;20091;-61
2021/07/30 02:01:05;;;;;;;2.33;0.40;;;;;;;;;;5036312;28;20045;-59
2021/07/30 02:03:30;;;;;;;0.95;0.10;;;;;;;;;;5036327;28;20032;-59
2021/07/30 02:05:56;;;;;;;0.60;0.20;;;;;;;;;;5036622;28;20049;-58
2021/07/30 02:08:21;;;;;;;1.15;0.25;;;;;;;;;;5035960;28;20436;-58
2021/07/30 02:10:46;;;;;;;0.95;0.20;;;;;;;;;;5036373;28;20035;-59
2021/07/30 02:15:55;;;;;;;0.10;0.00;;;;;;;;;;5036372;28;20384;-59
2021/07/30 02:18:20;;;;;;;0.85;0.20;;;;;;;;;;5036065;28;20033;-59
2021/07/30 02:20:46;;;;;;;1.25;0.22;;;;;;;;;;5036119;28;20033;-59
2021/07/30 02:23:11;;;;;;;1.38;0.20;;;;;;;;;;5036041;28;20014;-58
2021/07/30 02:25:36;;;;;;;0.13;0.10;;;;;;;;;;5036061;28;20025;-58
2021/07/30 02:28:01;;;;;;;1.48;0.25;;;;;;;;;;5035769;28;20118;-59
2021/07/30 02:30:26;;;;;;;1.15;0.30;;;;;;;;;;5035985;28;20100;-59
2021/07/30 02:32:52;;;;;;;2.00;0.30;;;;;;;;;;5036072;28;20361;-58
2021/07/30 02:35:17;;;;;;;0.68;0.32;;;;;;;;;;5035916;28;20302;-59
2021/07/30 02:37:42;;;;;;;1.15;0.40;;;;;;;;;;5035976;28;20033;-59
2021/07/30 02:40:08;;;;;;;1.45;0.20;;;;;;;;;;5035717;28;20038;-59
2021/07/30 02:42:33;;;;;;;1.75;0.40;;;;;;;;;;5035564;28;20025;-59
2021/07/30 02:44:58;;;;;;;0.23;0.10;;;;;;;;;;5034851;28;20090;-59
2021/07/30 02:47:23;;;;;;;3.92;0.47;;;;;;;;;;5035334;28;20254;-59
2021/07/30 02:49:48;;;;;;;0.60;0.10;;;;;;;;;;5035154;28;20032;-59
2021/07/30 02:52:14;;;;;;;1.10;0.30;;;;;;;;;;5035425;28;20026;-59
2021/07/30 02:54:39;;;;;;;1.92;0.30;;;;;;;;;;5035582;28;20029;-59
2021/07/30 02:57:04;;;;;;;0.90;0.30;;;;;;;;;;5035540;28;20104;-59
2021/07/30 02:59:29;;;;;;;1.35;0.20;;;;;;;;;;5034727;28;20108;-59
2021/07/30 03:01:54;;;;;;;1.00;0.20;;;;;;;;;;5034716;28;20025;-58
2021/07/30 03:04:20;;;;;;;1.38;0.45;;;;;;;;;;5034557;28;20025;-59
2021/07/30 03:06:45;;;;;;;0.93;0.40;;;;;;;;;;5034909;28;20027;-59
2021/07/30 03:09:10;;;;;;;0.17;0.10;;;;;;;;;;5035238;28;20021;-59
2021/07/30 03:11:35;;;;;;;0.52;0.10;;;;;;;;;;5035498;28;20033;-59
2021/07/30 03:14:01;;;;;;;0.77;0.43;;;;;;;;;;5035115;28;20033;-59
2021/07/30 03:16:26;;;;;;;0.40;0.10;;;;;;;;;;5034418;28;20028;-59
2021/07/30 03:18:51;;;;;;;1.20;0.20;;;;;;;;;;5034616;28;20028;-59
2021/07/30 03:21:16;;;;;;;0.45;0.20;;;;;;;;;;5034821;28;20037;-59
2021/07/30 03:23:42;;;;;;;1.45;0.15;;;;;;;;;;5034982;28;20027;-59
2021/07/30 03:26:07;;;;;;;0.88;0.38;;;;;;;;;;5034955;28;20066;-59
2021/07/30 03:28:32;;;;;;;1.10;0.20;;;;;;;;;;5034810;28;20028;-59
2021/07/30 03:30:58;;;;;;;2.13;0.22;;;;;;;;;;5034895;28;20068;-59
2021/07/30 03:33:23;;;;;;;1.73;0.20;;;;;;;;;;5034813;28;20025;-59
2021/07/30 03:35:48;;;;;;;0.75;0.20;;;;;;;;;;5034575;28;20076;-59
2021/07/30 03:38:14;;;;;;;1.27;0.30;;;;;;;;;;5034127;28;20029;-59
2021/07/30 03:40:39;;;;;;;0.20;0.10;;;;;;;;;;5032902;28;20033;-59
2021/07/30 03:43:04;;;;;;;0.73;0.10;;;;;;;;;;5034535;28;20456;-59
2021/07/30 03:45:30;;;;;;;1.77;0.10;;;;;;;;;;5034652;28;20027;-59
2021/07/30 03:47:55;;;;;;;0.93;0.30;;;;;;;;;;5034692;28;20017;-59
2021/07/30 03:50:20;;;;;;;2.20;0.20;;;;;;;;;;5034341;28;20463;-59
2021/07/30 03:52:45;;;;;;;0.65;0.20;;;;;;;;;;5034493;28;20105;-59
2021/07/30 03:55:10;;;;;;;1.13;0.22;;;;;;;;;;5034644;28;20380;-58
2021/07/30 03:57:36;;;;;;;0.60;0.30;;;;;;;;;;5034592;28;20025;-59
2021/07/30 04:00:01;;;;;;;0.55;0.20;;;;;;;;;;5034258;28;20503;-59
2021/07/30 04:02:26;;;;;;;1.90;0.35;;;;;;;;;;5034055;28;20071;-59
2021/07/30 04:04:51;;;;;;;0.88;0.30;;;;;;;;;;5034339;28;20022;-59
2021/07/30 04:07:17;;;;;;;0.10;0.08;;;;;;;;;;5034068;28;20025;-59
2021/07/30 04:09:42;;;;;;;2.88;0.28;;;;;;;;;;5034089;28;20032;-59
2021/07/30 04:12:07;;;;;;;1.02;0.22;;;;;;;;;;5033765;28;20032;-60
2021/07/30 04:14:33;;;;;;;1.15;0.30;;;;;;;;;;5034214;28;20456;-59
2021/07/30 04:16:58;;;;;;;0.22;0.10;;;;;;;;;;5033951;28;20029;-59
2021/07/30 04:19:23;;;;;;;0.20;0.10;;;;;;;;;;5033760;28;20021;-59
2021/07/30 04:21:50;;;;;;;0.57;0.13;;;;;;;;;;5033667;28;20065;-59
2021/07/30 04:24:16;;;;;;;0.85;0.10;;;;;;;;;;5033791;28;20048;-59
2021/07/30 04:26:41;;;;;;;0.20;0.10;;;;;;;;;;5033819;28;20049;-59
2021/07/30 04:29:06;;;;;;;0.65;0.10;;;;;;;;;;5033654;28;20025;-59
2021/07/30 04:31:31;;;;;;;1.40;0.40;;;;;;;;;;5033740;28;20021;-58
2021/07/30 04:33:57;;;;;;;0.20;0.10;;;;;;;;;;5033763;28;20479;-59
2021/07/30 04:36:22;;;;;;;0.40;0.10;;;;;;;;;;5033686;28;20067;-59
2021/07/30 04:38:47;;;;;;;0.63;0.28;;;;;;;;;;5033293;28;20257;-58
2021/07/30 04:41:12;;;;;;;0.95;0.13;;;;;;;;;;5033312;28;20105;-59
2021/07/30 04:43:38;;;;;;;2.67;0.50;;;;;;;;;;5031619;28;20059;-59
2021/07/30 04:46:03;;;;;;;1.33;0.10;;;;;;;;;;5033519;28;20029;-58
2021/07/30 04:48:28;;;;;;;0.68;0.10;;;;;;;;;;5033390;28;20025;-58
2021/07/30 04:50:54;;;;;;;1.80;0.20;;;;;;;;;;5033121;28;20064;-59
2021/07/30 04:53:19;;;;;;;0.63;0.20;;;;;;;;;;5033083;28;20718;-59
2021/07/30 04:55:44;;;;;;;1.13;0.10;;;;;;;;;;5033546;28;20036;-59
2021/07/30 04:58:09;;;;;;;1.03;0.20;;;;;;;;;;5032946;28;20498;-58
2021/07/30 05:00:34;;;;;;;1.00;0.40;;;;;;;;;;5033198;28;20301;-59
2021/07/30 05:03:00;;;;;;;0.50;0.20;;;;;;;;;;5033332;28;20100;-58
2021/07/30 05:05:27;;;;;;;0.27;0.10;;;;;;;;;;5032902;28;20419;-58
2021/07/30 05:07:52;;;;;;;0.40;0.10;;;;;;;;;;5033036;28;20242;-58
2021/07/30 05:10:18;;;;;;;0.95;0.40;;;;;;;;;;5033106;28;20063;-59
2021/07/30 05:12:43;;;;;;;0.80;0.10;;;;;;;;;;5033023;28;20041;-59
2021/07/30 05:15:08;;;;;;;0.25;0.13;;;;;;;;;;5032968;28;20021;-58
2021/07/30 05:17:34;;;;;;;1.83;0.38;;;;;;;;;;5033011;28;20028;-59
2021/07/30 05:19:59;;;;;;;0.90;0.10;;;;;;;;;;5032896;28;20010;-59
2021/07/30 05:22:24;;;;;;;0.70;0.20;;;;;;;;;;5031988;28;20392;-58
2021/07/30 05:24:50;;;;;;;1.17;0.20;;;;;;;;;;5033135;28;20419;-58
2021/07/30 05:27:15;;;;;;;0.20;0.17;;;;;;;;;;5032816;28;20021;-59
2021/07/30 05:29:40;;;;;;;1.13;0.30;;;;;;;;;;5032930;28;20026;-59
2021/07/30 05:32:09;;;;;;;2.30;0.30;;;;;;;;;;5032867;28;20488;-58
2021/07/30 05:34:34;;;;;;;0.77;0.25;;;;;;;;;;5032993;28;20702;-59
2021/07/30 05:36:59;;;;;;;0.25;0.10;;;;;;;;;;5032973;28;20029;-59
2021/07/30 05:39:25;;;;;;;0.95;0.30;;;;;;;;;;5032813;28;20491;-58
2021/07/30 05:41:50;;;;;;;0.38;0.20;;;;;;;;;;5033019;28;20021;-58
2021/07/30 05:44:16;;;;;;;0.83;0.30;;;;;;;;;;5032714;28;20721;-58
2021/07/30 05:46:41;;;;;;;0.25;0.10;;;;;;;;;;5032852;28;20250;-59
2021/07/30 05:49:06;;;;;;;0.70;0.35;;;;;;;;;;5032806;28;20028;-59
2021/07/30 05:51:33;;;;;;;0.52;0.30;;;;;;;;;;5032664;28;20028;-58
2021/07/30 05:53:58;;;;;;;1.13;0.40;;;;;;;;;;5032755;28;20060;-59
2021/07/30 05:56:23;;;;;;;0.40;0.30;;;;;;;;;;5032543;28;20065;-58
2021/07/30 05:58:49;;;;;;;0.73;0.28;;;;;;;;;;5032552;28;20025;-58
2021/07/30 06:01:14;;;;;;;0.20;0.17;;;;;;;;;;5032112;28;20057;-58
2021/07/30 06:03:40;;;;;;;1.58;0.32;;;;;;;;;;5032748;28;20464;-58
2021/07/30 06:06:05;;;;;;;0.55;0.20;;;;;;;;;;5032680;28;20456;-58
2021/07/30 06:08:30;;;;;;;0.35;0.30;;;;;;;;;;5032743;28;20028;-58
2021/07/30 06:10:55;;;;;;;0.65;0.17;;;;;;;;;;5032777;28;20068;-58
2021/07/30 06:13:21;;;;;;;1.03;0.30;;;;;;;;;;5032697;28;20083;-58
2021/07/30 06:15:46;;;;;;;0.32;0.10;;;;;;;;;;5032706;28;20262;-58
2021/07/30 06:18:11;;;;;;;0.40;0.10;;;;;;;;;;5031100;28;20029;-59
2021/07/30 06:20:36;;;;;;;2.05;0.50;;;;;;;;;;5034357;28;20029;-58
2021/07/30 06:23:02;;;;;;;0.20;0.10;;;;;;;;;;5035787;28;20018;-58
2021/07/30 06:25:27;;;;;;;0.55;0.20;;;;;;;;;;5035713;28;20021;-59
2021/07/30 06:27:52;;;;;;;0.20;0.20;;;;;;;;;;5035775;28;20049;-58
2021/07/30 06:30:17;;;;;;;3.38;0.30;;;;;;;;;;5035960;28;20111;-58
2021/07/30 06:32:43;;;;;;;0.50;0.15;;;;;;;;;;5035918;28;20057;-59
2021/07/30 06:35:08;;;;;;;1.23;0.20;;;;;;;;;;5035622;28;20510;-59
2021/07/30 06:37:34;;;;;;;0.52;0.25;;;;;;;;;;5034733;28;20452;-58
2021/07/30 06:40:00;;;;;;;0.20;0.10;;;;;;;;;;5035352;28;20022;-58
2021/07/30 06:42:25;;;;;;;0.63;0.50;;;;;;;;;;5035784;28;20029;-58
2021/07/30 06:44:50;;;;;;;0.25;0.20;;;;;;;;;;5035815;28;20093;-58
2021/07/30 06:47:18;;;;;;;0.73;0.10;;;;;;;;;;5035755;28;20018;-58
2021/07/30 06:49:44;;;;;;;2.38;0.43;;;;;;;;;;5035442;28;20328;-58
2021/07/30 06:52:09;;;;;;;1.73;0.57;;;;;;;;;;5035285;28;20391;-58
2021/07/30 06:54:34;;;;;;;0.57;0.40;;;;;;;;;;5035733;28;20313;-58
2021/07/30 06:57:00;;;;;;;0.73;0.20;;;;;;;;;;5035632;28;20038;-58
2021/07/30 06:59:25;;;;;;;0.80;0.10;;;;;;;;;;5033751;28;20570;-59
2021/07/30 07:01:50;;;;;;;0.50;0.20;;;;;;;;;;5035421;28;20037;-58
2021/07/30 07:04:15;;;;;;;0.90;0.30;;;;;;;;;;5025975;28;20029;-58
2021/07/30 07:06:41;;;;;;;0.70;0.20;;;;;;;;;;5018538;28;20059;-58
2021/07/30 07:09:06;;;;;;;1.10;0.30;;;;;;;;;;5015060;28;20148;-58
2021/07/30 07:11:31;;;;;;;0.65;0.20;;;;;;;;;;5032419;28;20033;-58
2021/07/30 07:13:57;;;;;;;0.30;0.20;;;;;;;;;;5034354;28;20037;-58
2021/07/30 07:16:22;;;;;;;0.75;0.20;;;;;;;;;;5033372;28;20056;-58
2021/07/30 07:18:48;;;;;;;0.52;0.10;;;;;;;;;;5037249;28;20029;-58
2021/07/30 07:21:13;;;;;;;0.40;0.10;;;;;;;;;;5054949;28;20096;-57
2021/07/30 07:23:39;;;;;;;1.23;0.20;;;;;;;;;;5046040;28;20026;-58
2021/07/30 07:26:04;;;;;;;1.83;0.30;;;;;;;;;;5051782;28;20096;-58
2021/07/30 07:28:29;;;;;;;1.05;0.52;;;;;;;;;;5053557;28;20455;-58
2021/07/30 07:30:55;;;;;;;0.57;0.20;;;;;;;;;;5054425;28;20020;-58
2021/07/30 07:33:20;;;;;;;1.95;0.47;;;;;;;;;;5054709;28;20043;-58
2021/07/30 07:35:45;;;;;;;2.72;0.20;;;;;;;;;;5054038;28;20031;-58
2021/07/30 07:38:11;;;;;;;0.65;0.20;;;;;;;;;;5054397;28;20103;-58
2021/07/30 07:40:36;;;;;;;0.35;0.25;;;;;;;;;;5054270;28;20459;-58
2021/07/30 07:43:02;;;;;;;0.83;0.17;;;;;;;;;;5026909;28;20054;-58
2021/07/30 07:45:28;;;;;;;0.50;0.35;;;;;;;;;;5017066;28;20267;-58
2021/07/30 07:47:54;;;;;;;1.50;0.20;;;;;;;;;;5025979;28;20009;-58
2021/07/30 07:50:21;;;;;;;0.40;0.10;;;;;;;;;;5034255;28;20021;-58
2021/07/30 07:52:46;;;;;;;0.20;0.20;;;;;;;;;;5033723;28;20097;-58
2021/07/30 07:55:11;;;;;;;0.97;0.37;;;;;;;;;;5034185;28;20075;-58
2021/07/30 07:57:43;;;;;;;2.22;0.30;;;;;;;;;;5034427;28;20250;-59
2021/07/30 08:00:09;;;;;;;1.25;0.38;;;;;;;;;;5033560;28;20069;-58
2021/07/30 08:02:34;;;;;;;0.30;0.10;;;;;;;;;;5030388;28;20060;-58
2021/07/30 08:04:59;;;;;;;1.48;0.45;;;;;;;;;;5025335;28;20464;-58
2021/07/30 08:07:24;;;;;;;0.35;0.30;;;;;;;;;;5034271;28;20029;-59
2021/07/30 08:09:50;;;;;;;0.70;0.20;;;;;;;;;;5036367;28;20036;-58
2021/07/30 08:12:15;;;;;;;0.50;0.20;;;;;;;;;;5046825;28;20038;-58
2021/07/30 08:14:41;;;;;;;2.20;0.30;;;;;;;;;;5030259;28;20028;-59
2021/07/30 08:17:06;;;;;;;1.70;0.17;;;;;;;;;;5030265;28;20026;-59
2021/07/30 08:19:32;;;;;;;0.90;0.20;;;;;;;;;;5039043;28;20100;-58
2021/07/30 08:21:57;;;;;;;1.02;0.25;;;;;;;;;;5040698;28;20022;-59
2021/07/30 08:24:22;;;;;;;0.40;0.10;;;;;;;;;;5033847;28;20483;-59
2021/07/30 08:26:48;;;;;;;0.45;0.40;;;;;;;;;;5053062;28;20250;-58
2021/07/30 08:29:15;;;;;;;1.17;0.30;;;;;;;;;;5034113;28;20025;-59
2021/07/30 08:31:40;;;;;;;0.63;0.20;;;;;;;;;;5017897;28;20056;-60
2021/07/30 08:34:05;;;;;;;3.08;0.52;;;;;;;;;;5027138;28;20056;-59
2021/07/30 08:36:31;;;;;;;2.55;0.43;;;;;;;;;;5032649;28;20392;-59
2021/07/30 08:38:56;;;;;;;0.25;0.25;;;;;;;;;;5032539;28;20100;-59
2021/07/30 08:41:21;;;;;;;1.10;0.50;;;;;;;;;;5032305;28;20029;-59
2021/07/30 08:43:51;;;;;;;0.65;0.20;;;;;;;;;;5032263;28;20009;-58
2021/07/30 08:46:16;;;;;;;1.15;0.40;;;;;;;;;;5036906;28;20036;-58
2021/07/30 08:48:43;;;;;;;3.42;0.68;;;;;;;;;;5020042;28;20037;-59
2021/07/30 08:51:09;;;;;;;0.85;0.40;;;;;;;;;;5021574;28;20460;-59
2021/07/30 08:53:35;;;;;;;0.73;0.20;;;;;;;;;;5022125;28;20046;-58
2021/07/30 08:56:01;;;;;;;1.88;0.50;;;;;;;;;;5037039;28;20049;-58
2021/07/30 08:58:27;;;;;;;1.17;0.28;;;;;;;;;;5045797;28;20017;-59
2021/07/30 09:00:52;;;;;;;1.48;0.30;;;;;;;;;;5054058;23;20049;-58
2021/07/30 09:03:18;;;;;;;1.33;0.30;;;;;;;;;;5041745;28;20041;-58
2021/07/30 09:05:44;;;;;;;1.30;0.20;;;;;;;;;;5042203;28;20092;-58
2021/07/30 09:08:10;;;;;;;1.30;0.40;;;;;;;;;;5050038;28;20075;-58
2021/07/30 09:10:40;;;;;;;1.45;0.50;;;;;;;;;;5047488;28;20017;-57
2021/07/30 09:13:11;;;;;;;0.93;0.25;;;;;;;;;;5043718;28;20028;-57
2021/07/30 09:15:37;;;;;;;1.25;0.50;;;;;;;;;;5049874;28;20023;-58
2021/07/30 09:18:03;;;;;;;1.20;0.22;;;;;;;;;;5045250;28;20036;-58
2021/07/30 09:20:29;;;;;;;0.90;0.47;;;;;;;;;;5047752;28;20009;-59
2021/07/30 09:22:54;;;;;;;1.85;0.50;;;;;;;;;;5050912;28;20033;-58
2021/07/30 09:25:36;;;;;;;0.60;0.35;;;;;;;;;;5034121;28;20020;-59
2021/07/30 09:28:02;;;;;;;4.30;0.47;;;;;;;;;;5048218;28;20014;-59
2021/07/30 09:30:27;;;;;;;1.42;0.60;;;;;;;;;;5051676;28;20009;-59
2021/07/30 09:32:53;;;;;;;1.20;0.40;;;;;;;;;;5051684;28;20533;-59
2021/07/30 09:35:18;;;;;;;1.95;0.40;;;;;;;;;;5044644;28;20091;-59
2021/07/30 09:37:43;;;;;;;0.30;0.20;;;;;;;;;;5040016;28;20026;-58
2021/07/30 09:40:18;;;;;;;0.73;0.20;;;;;;;;;;5049094;28;20013;-58
2021/07/30 09:42:44;;;;;;;1.65;0.57;;;;;;;;;;5039522;28;20029;-59
2021/07/30 09:45:13;;;;;;;1.02;0.30;;;;;;;;;;5034666;28;20173;-59
2021/07/30 09:47:48;;;;;;;2.03;0.38;;;;;;;;;;5039676;28;20018;-58
2021/07/30 09:50:13;;;;;;;1.70;0.38;;;;;;;;;;5035994;28;20018;-58
2021/07/30 09:52:41;;;;;;;1.17;0.30;;;;;;;;;;5050802;28;20043;-59
2021/07/30 09:55:06;;;;;;;0.65;0.20;;;;;;;;;;5037567;28;20396;-59
2021/07/30 09:57:33;;;;;;;0.88;0.40;;;;;;;;;;5036587;28;20024;-59
2021/07/30 09:59:59;;;;;;;0.82;0.20;;;;;;;;;;5036369;28;20073;-59
2021/07/30 10:02:26;;;;;;;2.28;0.22;;;;;;;;;;5030090;28;20030;-58
2021/07/30 10:04:52;;;;;;;1.17;0.50;;;;;;;;;;5020184;28;20020;-59
2021/07/30 10:07:19;;;;;;;1.08;0.47;;;;;;;;;;5020916;28;20014;-60
2021/07/30 10:09:47;;;;;;;1.02;0.30;;;;;;;;;;5016249;28;20072;-59
2021/07/30 10:12:13;;;;;;;2.40;0.40;;;;;;;;;;5020268;28;20417;-58
2021/07/30 10:14:39;;;;;;;0.38;0.28;;;;;;;;;;5028440;28;20105;-59
2021/07/30 10:17:06;;;;;;;1.67;0.50;;;;;;;;;;5036290;28;20029;-59
2021/07/30 10:19:31;;;;;;;0.52;0.22;;;;;;;;;;5036177;28;20109;-58
2021/07/30 10:21:59;;;;;;;1.23;0.30;;;;;;;;;;5036155;28;20451;-58
2021/07/30 10:24:26;;;;;;;2.45;0.30;;;;;;;;;;5036089;28;20014;-58
2021/07/30 10:26:51;;;;;;;2.10;0.40;;;;;;;;;;5035378;28;20022;-59
2021/07/30 10:29:16;;;;;;;0.82;0.25;;;;;;;;;;5034467;28;20025;-59
2021/07/30 10:31:48;;;;;;;0.63;0.20;;;;;;;;;;5036145;28;20037;-59
2021/07/30 10:34:14;;;;;;;0.10;0.10;;;;;;;;;;5035303;28;20437;-59
2021/07/30 10:36:39;;;;;;;0.63;0.40;;;;;;;;;;5035362;28;20029;-59
2021/07/30 10:39:10;;;;;;;0.68;0.40;;;;;;;;;;5034382;28;20022;-59
2021/07/30 10:41:36;;;;;;;1.02;0.28;;;;;;;;;;5035573;28;20108;-59
2021/07/30 10:44:01;;;;;;;1.42;0.45;;;;;;;;;;5035750;28;20052;-59
2021/07/30 10:46:27;;;;;;;0.98;0.30;;;;;;;;;;5035715;28;20048;-59
2021/07/30 10:48:53;;;;;;;0.50;0.28;;;;;;;;;;5035607;28;20028;-59
2021/07/30 10:51:18;;;;;;;0.98;0.20;;;;;;;;;;5035558;28;20063;-59
2021/07/30 10:53:49;;;;;;;3.22;0.22;;;;;;;;;;5035544;28;20021;-58
2021/07/30 10:56:15;;;;;;;0.30;0.20;;;;;;;;;;5035331;28;20404;-59
2021/07/30 10:58:40;;;;;;;0.70;0.13;;;;;;;;;;5035564;28;20029;-59
2021/07/30 11:01:08;;;;;;;2.20;0.60;;;;;;;;;;5035319;28;20282;-60
2021/07/30 11:03:48;;;;;;;1.38;0.40;;;;;;;;;;5032457;28;20017;-58
2021/07/30 11:06:14;;;;;;;2.10;0.40;;;;;;;;;;5029548;28;20026;-58
2021/07/30 11:08:58;;;;;;;1.25;0.20;;;;;;;;;;5035211;28;20020;-58
2021/07/30 11:11:39;;;;;;;0.28;0.17;;;;;;;;;;5034068;28;20032;-58
2021/07/30 11:14:13;;;;;;;2.35;0.30;;;;;;;;;;5030977;28;20029;-59
2021/07/30 11:16:39;;;;;;;1.38;0.40;;;;;;;;;;5033241;28;20024;-59
2021/07/30 11:19:04;;;;;;;0.20;0.20;;;;;;;;;;5033976;28;20021;-59
2021/07/30 11:21:30;;;;;;;1.92;0.25;;;;;;;;;;5034669;28;20035;-59
2021/07/30 11:23:58;;;;;;;1.38;0.50;;;;;;;;;;5033714;28;20026;-58
2021/07/30 11:26:24;;;;;;;1.02;0.30;;;;;;;;;;5030896;28;20032;-59
2021/07/30 11:28:54;;;;;;;0.47;0.17;;;;;;;;;;5034087;28;20021;-59
2021/07/30 11:31:20;;;;;;;1.77;0.30;;;;;;;;;;5034913;28;20033;-59
2021/07/30 11:33:45;;;;;;;1.77;0.30;;;;;;;;;;5034574;28;20048;-59
2021/07/30 11:36:13;;;;;;;0.60;0.10;;;;;;;;;;5034256;28;20036;-59
2021/07/30 11:38:52;;;;;;;0.75;0.30;;;;;;;;;;5034669;28;20080;-59
2021/07/30 11:41:18;;;;;;;0.43;0.20;;;;;;;;;;5034424;28;20021;-59
2021/07/30 11:44:03;;;;;;;0.98;0.73;;;;;;;;;;5034203;28;20035;-59
2021/07/30 11:46:30;;;;;;;1.33;0.35;;;;;;;;;;5034552;28;20468;-59
2021/07/30 11:48:55;;;;;;;0.95;0.30;;;;;;;;;;5034604;28;20478;-58
2021/07/30 11:51:21;;;;;;;0.82;0.20;;;;;;;;;;5033427;28;20053;-59
2021/07/30 11:53:53;;;;;;;1.10;0.40;;;;;;;;;;5033610;28;20107;-59
2021/07/30 11:56:18;;;;;;;0.22;0.20;;;;;;;;;;5031743;28;20653;-58
2021/07/30 11:58:56;;;;;;;0.30;0.10;;;;;;;;;;5033823;28;20037;-59
2021/07/30 12:01:22;;;;;;;0.40;0.10;;;;;;;;;;5023671;28;20029;-59
2021/07/30 12:04:05;;;;;;;2.33;0.53;;;;;;;;;;5034128;28;20032;-61
2021/07/30 12:06:32;;;;;;;0.52;0.20;;;;;;;;;;5025612;28;20013;-59
2021/07/30 12:08:58;;;;;;;1.30;0.32;;;;;;;;;;5026249;28;20472;-58
2021/07/30 12:11:26;;;;;;;0.98;0.28;;;;;;;;;;5017110;28;20033;-59
2021/07/30 12:13:52;;;;;;;0.38;0.20;;;;;;;;;;5014313;28;20018;-59
2021/07/30 12:16:17;;;;;;;1.77;0.40;;;;;;;;;;5019936;28;20092;-59
2021/07/30 12:18:43;;;;;;;0.40;0.20;;;;;;;;;;5022737;28;20049;-59
2021/07/30 12:21:08;;;;;;;1.02;0.20;;;;;;;;;;5017882;28;20037;-60
2021/07/30 12:23:33;;;;;;;1.23;0.20;;;;;;;;;;5020186;28;20014;-59
2021/07/30 12:25:59;;;;;;;0.60;0.20;;;;;;;;;;5032395;28;20018;-60
2021/07/30 12:28:26;;;;;;;3.17;0.40;;;;;;;;;;5029741;28;22027;-59
2021/07/30 12:30:53;;;;;;;1.38;0.45;;;;;;;;;;5020938;28;20021;-59
2021/07/30 12:33:22;;;;;;;1.33;0.40;;;;;;;;;;5030307;28;20056;-59
2021/07/30 12:35:47;;;;;;;0.52;0.30;;;;;;;;;;5026932;28;20379;-59
2021/07/30 12:38:15;;;;;;;1.80;0.30;;;;;;;;;;5021800;28;20495;-59
2021/07/30 12:40:41;;;;;;;0.22;0.10;;;;;;;;;;5021892;28;20465;-59
2021/07/30 12:43:07;;;;;;;1.05;0.30;;;;;;;;;;5022805;28;20100;-58
2021/07/30 12:45:51;;;;;;;1.25;0.40;;;;;;;;;;5005969;28;20021;-58
2021/07/30 12:48:17;;;;;;;1.88;0.45;;;;;;;;;;5024332;28;20448;-59
2021/07/30 12:50:42;;;;;;;1.08;0.40;;;;;;;;;;5014122;28;20720;-58
2021/07/30 12:53:10;;;;;;;1.25;0.30;;;;;;;;;;5030861;28;20027;-59
2021/07/30 12:55:54;;;;;;;0.55;0.30;;;;;;;;;;5041285;28;20025;-59
2021/07/30 12:58:26;;;;;;;2.55;0.45;;;;;;;;;;5021366;28;20029;-58
2021/07/30 13:00:52;;;;;;;2.80;0.35;;;;;;;;;;5021933;28;20559;-58
2021/07/30 13:03:17;;;;;;;1.45;0.30;;;;;;;;;;5030301;28;20022;-58
2021/07/30 13:05:45;;;;;;;1.98;0.30;;;;;;;;;;5024206;28;20091;-59
2021/07/30 13:08:10;;;;;;;0.45;0.17;;;;;;;;;;5013090;28;20045;-58
2021/07/30 13:10:36;;;;;;;0.90;0.30;;;;;;;;;;5028948;28;20041;-58
2021/07/30 13:13:02;;;;;;;2.05;0.45;;;;;;;;;;5013207;28;20030;-59
2021/07/30 13:15:28;;;;;;;1.02;0.28;;;;;;;;;;5014933;28;20014;-59
2021/07/30 13:17:53;;;;;;;0.82;0.28;;;;;;;;;;5030508;28;20026;-59
2021/07/30 13:20:18;;;;;;;0.57;0.38;;;;;;;;;;5019405;28;20028;-59
2021/07/30 13:22:44;;;;;;;2.53;0.30;;;;;;;;;;5031439;28;20068;-59
2021/07/30 13:25:09;;;;;;;1.42;0.20;;;;;;;;;;5031548;28;20028;-58
2021/07/30 13:27:34;;;;;;;1.25;0.30;;;;;;;;;;5029381;28;20029;-59
2021/07/30 13:29:59;;;;;;;2.15;0.73;;;;;;;;;;5052506;28;20017;-60
2021/07/30 13:32:25;;;;;;;0.40;0.13;;;;;;;;;;5044900;28;20029;-60
2021/07/30 13:34:50;;;;;;;0.82;0.35;;;;;;;;;;5030876;28;20282;-60
2021/07/30 13:37:15;;;;;;;0.50;0.30;;;;;;;;;;5037842;28;20032;-60
2021/07/30 13:39:40;;;;;;;1.45;0.13;;;;;;;;;;5039161;28;20048;-60
2021/07/30 13:42:05;;;;;;;2.83;0.40;;;;;;;;;;5035432;28;20153;-60
2021/07/30 13:44:31;;;;;;;0.40;0.20;;;;;;;;;;5035511;28;20096;-59
2021/07/30 13:46:57;;;;;;;1.48;0.40;;;;;;;;;;5035673;28;20667;-60
2021/07/30 13:49:23;;;;;;;0.75;0.32;;;;;;;;;;5035539;28;20172;-60
2021/07/30 13:51:48;;;;;;;1.88;0.47;;;;;;;;;;5035730;28;20096;-59
2021/07/30 13:54:14;;;;;;;1.50;0.40;;;;;;;;;;5035506;28;20117;-60
2021/07/30 13:56:39;;;;;;;1.00;0.30;;;;;;;;;;5036798;28;20076;-60
2021/07/30 13:59:04;;;;;;;0.93;0.50;;;;;;;;;;5036500;28;20049;-60
2021/07/30 14:01:29;;;;;;;1.65;0.30;;;;;;;;;;5036350;28;20029;-60
2021/07/30 14:03:54;;;;;;;0.80;0.10;;;;;;;;;;5036142;28;20025;-59
2021/07/30 14:06:19;;;;;;;1.48;0.20;;;;;;;;;;5036219;28;20257;-60
2021/07/30 14:08:45;;;;;;;1.07;0.57;;;;;;;;;;5036518;28;20468;-60
2021/07/30 14:11:14;;;;;;;1.50;0.20;;;;;;;;;;5036247;28;20266;-59
2021/07/30 14:13:39;;;;;;;1.10;0.20;;;;;;;;;;5036460;28;20125;-60
2021/07/30 14:16:05;;;;;;;0.45;0.30;;;;;;;;;;5036179;28;20049;-60
2021/07/30 14:18:30;;;;;;;0.60;0.20;;;;;;;;;;5036410;28;20028;-60
2021/07/30 14:20:55;;;;;;;2.03;0.20;;;;;;;;;;5036172;28;20030;-60
2021/07/30 14:23:20;;;;;;;0.55;0.35;;;;;;;;;;5035970;28;20108;-60
2021/07/30 14:25:45;;;;;;;1.08;0.30;;;;;;;;;;5036267;28;20053;-60
2021/07/30 14:28:11;;;;;;;2.58;0.43;;;;;;;;;;5036115;28;20017;-60
2021/07/30 14:30:37;;;;;;;0.90;0.30;;;;;;;;;;5036129;28;20021;-60
2021/07/30 14:33:02;;;;;;;1.50;0.47;;;;;;;;;;5036047;28;20017;-60
2021/07/30 14:35:27;;;;;;;2.92;0.40;;;;;;;;;;5035879;28;20014;-60
2021/07/30 14:37:52;;;;;;;0.47;0.20;;;;;;;;;;5036023;28;20032;-60
2021/07/30 14:40:18;;;;;;;0.63;0.20;;;;;;;;;;5034764;28;20376;-60